createdAt,value
2024-01-24T00:01:37.386Z,89
2024-01-24T00:11:37.585Z,88
2024-01-24T00:21:37.768Z,88
2024-01-24T00:31:37.986Z,88
2024-01-24T00:41:38.216Z,88
2024-01-24T00:51:38.349Z,88
2024-01-24T01:01:38.573Z,87
2024-01-24T01:11:38.737Z,86
2024-01-24T01:21:38.999Z,86
2024-01-24T01:31:39.162Z,85
2024-01-24T01:41:39.319Z,85
2024-01-24T01:51:39.565Z,85
2024-01-24T02:01:39.788Z,85
2024-01-24T02:11:39.917Z,86
2024-01-24T02:21:40.131Z,86
2024-01-24T02:31:40.341Z,85
2024-01-24T02:41:40.483Z,83
2024-01-24T02:51:40.684Z,83
2024-01-24T03:01:40.896Z,83
2024-01-24T03:11:41.057Z,82
2024-01-24T03:21:41.270Z,82
2024-01-24T03:31:41.445Z,84
2024-01-24T03:41:41.664Z,87
2024-01-24T03:51:41.854Z,88
2024-01-24T04:11:42.208Z,87
2024-01-24T04:21:42.486Z,85
2024-01-24T04:31:42.637Z,81
2024-01-24T04:41:42.806Z,82
2024-01-24T04:51:43.026Z,80
2024-01-24T05:01:43.264Z,79
2024-01-24T05:11:43.521Z,79
2024-01-24T05:21:43.656Z,77
2024-01-24T05:31:43.754Z,75
2024-01-24T05:41:43.955Z,74
2024-01-24T05:51:44.190Z,74
2024-01-24T06:01:44.606Z,69
2024-01-24T06:31:44.969Z,66
2024-01-24T06:41:45.135Z,66
2024-01-24T06:51:45.316Z,66
2024-01-24T07:01:45.567Z,66
2024-01-24T07:11:45.715Z,68
2024-01-24T07:21:45.934Z,69
2024-01-24T07:31:46.117Z,69
2024-01-24T07:41:46.310Z,68
2024-01-24T07:51:46.519Z,66
2024-01-24T08:01:46.749Z,64
2024-01-24T08:11:46.892Z,63
2024-01-24T08:21:47.123Z,64
2024-01-24T08:31:47.325Z,63
2024-01-24T08:41:47.489Z,64
2024-01-24T08:51:47.653Z,64
2024-01-24T09:01:47.883Z,64
2024-01-24T09:21:48.276Z,63
2024-01-24T09:31:48.399Z,63
2024-01-24T09:41:48.611Z,63
2024-01-24T09:51:48.827Z,62
2024-01-24T10:01:49.029Z,62
2024-01-24T10:11:49.233Z,63
2024-01-24T10:31:49.621Z,63
2024-01-24T10:41:49.785Z,63
2024-01-24T10:51:50.059Z,62
2024-01-24T11:01:50.178Z,62
2024-01-24T11:11:50.360Z,62
2024-01-24T11:21:50.570Z,62
2024-01-24T11:41:50.935Z,62
2024-01-24T11:51:51.167Z,62
2024-01-24T12:01:51.471Z,61
2024-01-24T12:11:51.524Z,62
2024-01-24T12:21:51.759Z,61
2024-01-24T12:31:51.909Z,61
2024-01-24T12:41:52.097Z,61
2024-01-24T12:51:52.324Z,61
2024-01-24T13:01:52.561Z,61
2024-01-24T13:41:53.278Z,61
2024-01-24T14:01:54.300Z,61
2024-01-24T14:11:53.852Z,62
2024-01-24T14:41:54.447Z,62
2024-01-24T14:51:54.718Z,63
2024-01-24T15:01:54.944Z,63
2024-01-24T15:11:55.062Z,64
2024-01-24T15:21:55.508Z,64
2024-01-24T15:31:55.419Z,64
2024-01-24T15:41:55.636Z,64
2024-01-24T15:51:55.836Z,64
2024-01-24T16:11:56.182Z,65
2024-01-24T16:21:56.425Z,66
2024-01-24T16:31:56.604Z,66
2024-01-24T16:41:56.830Z,66
2024-01-24T16:51:57.005Z,67
2024-01-24T17:01:57.172Z,67
2024-01-24T17:11:57.367Z,67
2024-01-24T17:21:57.631Z,67
2024-01-24T17:31:57.783Z,68
2024-01-24T17:41:57.945Z,68
2024-01-24T17:51:58.241Z,68
2024-01-24T18:01:58.345Z,68
2024-01-24T18:11:58.569Z,69
2024-01-24T18:21:58.741Z,69
2024-01-24T18:31:58.921Z,69
2024-01-24T18:41:59.112Z,69
2024-01-24T18:51:59.325Z,69
2024-01-24T19:01:59.656Z,69
2024-01-24T19:11:59.704Z,69
2024-01-24T19:21:59.929Z,70
2024-01-24T19:32:00.144Z,70
2024-01-24T19:52:00.508Z,70
2024-01-24T20:02:00.668Z,70
2024-01-24T20:12:00.880Z,71
2024-01-24T20:22:01.086Z,71
2024-01-24T20:32:01.278Z,71
2024-01-24T20:42:03.079Z,71
2024-01-24T21:02:01.890Z,72
2024-01-24T21:12:02.058Z,73
2024-01-24T21:22:02.349Z,73
2024-01-24T21:32:02.436Z,74
2024-01-24T21:42:02.657Z,75
2024-01-24T21:52:02.855Z,75
2024-01-24T22:02:03.083Z,75
2024-01-24T22:12:03.228Z,76
2024-01-24T22:22:03.423Z,75
2024-01-24T22:32:03.608Z,76
2024-01-24T22:42:03.816Z,76
2024-01-24T22:52:04.010Z,76
2024-01-24T23:02:04.462Z,77
2024-01-24T23:12:04.389Z,77
2024-01-24T23:22:04.662Z,78
2024-01-24T23:32:04.830Z,78
2024-01-24T23:42:05.021Z,78
2024-01-24T23:52:05.399Z,78
